sensor_id;sensor_type;location;lat;lon;timestamp;P1;durP1;ratioP1;P2;durP2;ratioP2
6207;SDS011;3137;51.550;7.060;2023-04-15T00:00:55;14.20;;;12.80;;
6207;SDS011;3137;51.550;7.060;2023-04-15T00:03:22;14.63;;;12.37;;
6207;SDS011;3137;51.550;7.060;2023-04-15T00:05:49;13.30;;;12.17;;
6207;SDS011;3137;51.550;7.060;2023-04-15T00:08:17;13.63;;;12.30;;
6207;SDS011;3137;51.550;7.060;2023-04-15T00:10:43;13.47;;;12.13;;
6207;SDS011;3137;51.550;7.060;2023-04-15T00:13:11;12.30;;;11.17;;
6207;SDS011;3137;51.550;7.060;2023-04-15T00:15:37;13.97;;;12.00;;
6207;SDS011;3137;51.550;7.060;2023-04-15T00:18:04;12.87;;;11.73;;
6207;SDS011;3137;51.550;7.060;2023-04-15T00:20:30;21.63;;;11.80;;
6207;SDS011;3137;51.550;7.060;2023-04-15T00:22:57;13.40;;;12.07;;
6207;SDS011;3137;51.550;7.060;2023-04-15T00:25:25;13.50;;;12.20;;
6207;SDS011;3137;51.550;7.060;2023-04-15T00:27:51;14.27;;;12.80;;
6207;SDS011;3137;51.550;7.060;2023-04-15T00:30:18;13.70;;;12.47;;
6207;SDS011;3137;51.550;7.060;2023-04-15T00:32:45;13.10;;;12.00;;
6207;SDS011;3137;51.550;7.060;2023-04-15T00:35:12;13.37;;;11.93;;
6207;SDS011;3137;51.550;7.060;2023-04-15T00:37:38;13.60;;;12.20;;
6207;SDS011;3137;51.550;7.060;2023-04-15T00:40:08;13.50;;;12.13;;
6207;SDS011;3137;51.550;7.060;2023-04-15T00:42:38;22.80;;;12.93;;
6207;SDS011;3137;51.550;7.060;2023-04-15T00:45:05;13.37;;;12.37;;
6207;SDS011;3137;51.550;7.060;2023-04-15T00:47:32;11.77;;;11.07;;
6207;SDS011;3137;51.550;7.060;2023-04-15T00:50:00;12.40;;;11.23;;
6207;SDS011;3137;51.550;7.060;2023-04-15T00:52:27;11.13;;;10.40;;
6207;SDS011;3137;51.550;7.060;2023-04-15T00:54:54;11.70;;;10.90;;
6207;SDS011;3137;51.550;7.060;2023-04-15T00:57:20;14.67;;;11.83;;
6207;SDS011;3137;51.550;7.060;2023-04-15T00:59:48;11.97;;;11.07;;
6207;SDS011;3137;51.550;7.060;2023-04-15T01:02:16;10.60;;;9.93;;
6207;SDS011;3137;51.550;7.060;2023-04-15T01:04:43;14.40;;;11.00;;
6207;SDS011;3137;51.550;7.060;2023-04-15T01:07:09;12.63;;;11.63;;
6207;SDS011;3137;51.550;7.060;2023-04-15T01:09:36;14.47;;;11.70;;
6207;SDS011;3137;51.550;7.060;2023-04-15T01:12:02;12.00;;;11.17;;
6207;SDS011;3137;51.550;7.060;2023-04-15T01:14:30;13.53;;;11.43;;
6207;SDS011;3137;51.550;7.060;2023-04-15T01:16:57;12.03;;;11.30;;
6207;SDS011;3137;51.550;7.060;2023-04-15T01:19:23;18.63;;;10.90;;
6207;SDS011;3137;51.550;7.060;2023-04-15T01:21:50;20.97;;;13.03;;
6207;SDS011;3137;51.550;7.060;2023-04-15T01:24:17;12.53;;;11.47;;
6207;SDS011;3137;51.550;7.060;2023-04-15T01:26:44;11.77;;;10.77;;
6207;SDS011;3137;51.550;7.060;2023-04-15T01:29:11;13.47;;;12.07;;
6207;SDS011;3137;51.550;7.060;2023-04-15T01:31:38;12.73;;;11.70;;
6207;SDS011;3137;51.550;7.060;2023-04-15T01:34:04;12.33;;;11.47;;
6207;SDS011;3137;51.550;7.060;2023-04-15T01:36:31;18.73;;;11.97;;
6207;SDS011;3137;51.550;7.060;2023-04-15T01:38:57;12.27;;;11.23;;
6207;SDS011;3137;51.550;7.060;2023-04-15T01:41:25;13.07;;;11.93;;
6207;SDS011;3137;51.550;7.060;2023-04-15T01:43:52;13.30;;;12.03;;
6207;SDS011;3137;51.550;7.060;2023-04-15T01:46:19;13.20;;;11.13;;
6207;SDS011;3137;51.550;7.060;2023-04-15T01:48:45;12.87;;;11.70;;
6207;SDS011;3137;51.550;7.060;2023-04-15T01:51:12;13.00;;;11.67;;
6207;SDS011;3137;51.550;7.060;2023-04-15T01:53:38;12.60;;;11.60;;
6207;SDS011;3137;51.550;7.060;2023-04-15T01:56:05;11.53;;;10.53;;
6207;SDS011;3137;51.550;7.060;2023-04-15T01:58:32;16.47;;;10.90;;
6207;SDS011;3137;51.550;7.060;2023-04-15T02:00:58;12.07;;;10.63;;
6207;SDS011;3137;51.550;7.060;2023-04-15T02:03:25;11.87;;;10.90;;
6207;SDS011;3137;51.550;7.060;2023-04-15T02:05:51;13.73;;;11.03;;
6207;SDS011;3137;51.550;7.060;2023-04-15T02:08:18;15.60;;;10.57;;
6207;SDS011;3137;51.550;7.060;2023-04-15T02:10:44;16.27;;;12.30;;
6207;SDS011;3137;51.550;7.060;2023-04-15T02:13:10;13.17;;;11.60;;
6207;SDS011;3137;51.550;7.060;2023-04-15T02:15:37;12.87;;;11.60;;
6207;SDS011;3137;51.550;7.060;2023-04-15T02:18:03;21.63;;;12.93;;
6207;SDS011;3137;51.550;7.060;2023-04-15T02:20:30;13.43;;;12.30;;
6207;SDS011;3137;51.550;7.060;2023-04-15T02:22:57;12.00;;;11.10;;
6207;SDS011;3137;51.550;7.060;2023-04-15T02:25:23;12.47;;;11.40;;
6207;SDS011;3137;51.550;7.060;2023-04-15T02:27:49;26.53;;;12.87;;
6207;SDS011;3137;51.550;7.060;2023-04-15T02:30:16;13.53;;;12.23;;
6207;SDS011;3137;51.550;7.060;2023-04-15T02:32:43;14.70;;;12.87;;
6207;SDS011;3137;51.550;7.060;2023-04-15T02:35:10;12.67;;;11.77;;
6207;SDS011;3137;51.550;7.060;2023-04-15T02:37:36;13.03;;;11.67;;
6207;SDS011;3137;51.550;7.060;2023-04-15T02:40:09;14.27;;;12.47;;
6207;SDS011;3137;51.550;7.060;2023-04-15T02:42:39;13.67;;;12.30;;
6207;SDS011;3137;51.550;7.060;2023-04-15T02:45:09;13.50;;;12.00;;
6207;SDS011;3137;51.550;7.060;2023-04-15T02:47:38;12.97;;;11.87;;
6207;SDS011;3137;51.550;7.060;2023-04-15T02:50:09;13.30;;;12.03;;
6207;SDS011;3137;51.550;7.060;2023-04-15T02:52:39;12.87;;;11.80;;
6207;SDS011;3137;51.550;7.060;2023-04-15T02:55:07;11.83;;;11.10;;
6207;SDS011;3137;51.550;7.060;2023-04-15T02:57:35;17.23;;;13.07;;
6207;SDS011;3137;51.550;7.060;2023-04-15T03:00:07;15.27;;;11.83;;
6207;SDS011;3137;51.550;7.060;2023-04-15T03:02:39;14.17;;;12.47;;
6207;SDS011;3137;51.550;7.060;2023-04-15T03:05:10;14.33;;;13.10;;
6207;SDS011;3137;51.550;7.060;2023-04-15T03:07:39;14.03;;;12.53;;
6207;SDS011;3137;51.550;7.060;2023-04-15T03:10:06;14.77;;;12.23;;
6207;SDS011;3137;51.550;7.060;2023-04-15T03:12:33;18.13;;;12.80;;
6207;SDS011;3137;51.550;7.060;2023-04-15T03:14:59;14.97;;;13.60;;
6207;SDS011;3137;51.550;7.060;2023-04-15T03:17:33;26.17;;;15.50;;
6207;SDS011;3137;51.550;7.060;2023-04-15T03:20:00;17.37;;;13.83;;
6207;SDS011;3137;51.550;7.060;2023-04-15T03:22:29;15.37;;;13.30;;
6207;SDS011;3137;51.550;7.060;2023-04-15T03:24:56;14.17;;;12.67;;
6207;SDS011;3137;51.550;7.060;2023-04-15T03:27:23;19.47;;;14.70;;
6207;SDS011;3137;51.550;7.060;2023-04-15T03:29:52;14.43;;;13.03;;
6207;SDS011;3137;51.550;7.060;2023-04-15T03:32:21;14.30;;;13.03;;
6207;SDS011;3137;51.550;7.060;2023-04-15T03:34:48;14.60;;;13.00;;
6207;SDS011;3137;51.550;7.060;2023-04-15T03:37:14;14.27;;;13.03;;
6207;SDS011;3137;51.550;7.060;2023-04-15T03:39:41;17.57;;;14.70;;
6207;SDS011;3137;51.550;7.060;2023-04-15T03:42:07;19.80;;;13.60;;
6207;SDS011;3137;51.550;7.060;2023-04-15T03:44:34;15.93;;;14.07;;
6207;SDS011;3137;51.550;7.060;2023-04-15T03:47:01;16.13;;;14.40;;
6207;SDS011;3137;51.550;7.060;2023-04-15T03:49:27;17.43;;;15.43;;
6207;SDS011;3137;51.550;7.060;2023-04-15T03:51:54;16.63;;;14.93;;
6207;SDS011;3137;51.550;7.060;2023-04-15T03:54:20;15.60;;;14.27;;
6207;SDS011;3137;51.550;7.060;2023-04-15T03:56:47;16.37;;;14.67;;
6207;SDS011;3137;51.550;7.060;2023-04-15T03:59:13;18.57;;;14.93;;
6207;SDS011;3137;51.550;7.060;2023-04-15T04:01:39;17.33;;;14.80;;
6207;SDS011;3137;51.550;7.060;2023-04-15T04:04:06;16.87;;;15.00;;
6207;SDS011;3137;51.550;7.060;2023-04-15T04:06:32;17.37;;;15.37;;
6207;SDS011;3137;51.550;7.060;2023-04-15T04:08:59;16.83;;;14.43;;
6207;SDS011;3137;51.550;7.060;2023-04-15T04:11:27;20.40;;;16.53;;
6207;SDS011;3137;51.550;7.060;2023-04-15T04:13:53;15.93;;;14.47;;
6207;SDS011;3137;51.550;7.060;2023-04-15T04:16:19;21.37;;;14.53;;
6207;SDS011;3137;51.550;7.060;2023-04-15T04:18:46;17.53;;;15.67;;
6207;SDS011;3137;51.550;7.060;2023-04-15T04:21:12;17.17;;;15.33;;
6207;SDS011;3137;51.550;7.060;2023-04-15T04:23:39;16.17;;;14.73;;
6207;SDS011;3137;51.550;7.060;2023-04-15T04:26:05;17.10;;;15.43;;
6207;SDS011;3137;51.550;7.060;2023-04-15T04:28:32;16.47;;;14.87;;
6207;SDS011;3137;51.550;7.060;2023-04-15T04:30:58;22.77;;;14.80;;
6207;SDS011;3137;51.550;7.060;2023-04-15T04:33:25;16.20;;;14.53;;
6207;SDS011;3137;51.550;7.060;2023-04-15T04:35:51;19.03;;;15.50;;
6207;SDS011;3137;51.550;7.060;2023-04-15T04:38:17;17.23;;;15.40;;
6207;SDS011;3137;51.550;7.060;2023-04-15T04:40:44;17.23;;;15.40;;
6207;SDS011;3137;51.550;7.060;2023-04-15T04:43:10;16.40;;;14.73;;
6207;SDS011;3137;51.550;7.060;2023-04-15T04:45:36;17.77;;;14.67;;
6207;SDS011;3137;51.550;7.060;2023-04-15T04:48:03;18.67;;;15.07;;
6207;SDS011;3137;51.550;7.060;2023-04-15T04:50:32;16.37;;;14.67;;
6207;SDS011;3137;51.550;7.060;2023-04-15T04:52:59;16.30;;;14.63;;
6207;SDS011;3137;51.550;7.060;2023-04-15T04:55:26;17.53;;;15.23;;
6207;SDS011;3137;51.550;7.060;2023-04-15T04:57:52;18.23;;;15.83;;
6207;SDS011;3137;51.550;7.060;2023-04-15T05:00:19;26.00;;;15.57;;
6207;SDS011;3137;51.550;7.060;2023-04-15T05:02:45;33.00;;;15.70;;
6207;SDS011;3137;51.550;7.060;2023-04-15T05:05:12;18.43;;;15.37;;
6207;SDS011;3137;51.550;7.060;2023-04-15T05:07:38;22.17;;;16.37;;
6207;SDS011;3137;51.550;7.060;2023-04-15T05:10:05;18.50;;;16.20;;
6207;SDS011;3137;51.550;7.060;2023-04-15T05:12:32;26.30;;;16.63;;
6207;SDS011;3137;51.550;7.060;2023-04-15T05:14:58;22.50;;;16.57;;
6207;SDS011;3137;51.550;7.060;2023-04-15T05:17:24;20.93;;;16.90;;
6207;SDS011;3137;51.550;7.060;2023-04-15T05:19:51;24.87;;;17.43;;
6207;SDS011;3137;51.550;7.060;2023-04-15T05:22:18;26.57;;;17.20;;
6207;SDS011;3137;51.550;7.060;2023-04-15T05:24:45;29.63;;;17.40;;
6207;SDS011;3137;51.550;7.060;2023-04-15T05:27:11;21.07;;;18.30;;
6207;SDS011;3137;51.550;7.060;2023-04-15T05:29:38;25.43;;;18.27;;
6207;SDS011;3137;51.550;7.060;2023-04-15T05:32:04;23.43;;;18.47;;
6207;SDS011;3137;51.550;7.060;2023-04-15T05:34:31;26.20;;;19.07;;
6207;SDS011;3137;51.550;7.060;2023-04-15T05:36:57;28.63;;;19.77;;
6207;SDS011;3137;51.550;7.060;2023-04-15T05:39:23;38.00;;;18.17;;
6207;SDS011;3137;51.550;7.060;2023-04-15T05:41:50;36.73;;;20.57;;
6207;SDS011;3137;51.550;7.060;2023-04-15T05:44:16;40.90;;;20.90;;
6207;SDS011;3137;51.550;7.060;2023-04-15T05:46:42;32.87;;;20.43;;
6207;SDS011;3137;51.550;7.060;2023-04-15T05:49:09;35.03;;;20.93;;
6207;SDS011;3137;51.550;7.060;2023-04-15T05:51:35;30.87;;;21.20;;
6207;SDS011;3137;51.550;7.060;2023-04-15T05:54:02;32.67;;;21.43;;
6207;SDS011;3137;51.550;7.060;2023-04-15T05:56:28;29.57;;;21.17;;
6207;SDS011;3137;51.550;7.060;2023-04-15T05:58:54;26.40;;;19.63;;
6207;SDS011;3137;51.550;7.060;2023-04-15T06:01:21;30.50;;;20.03;;
6207;SDS011;3137;51.550;7.060;2023-04-15T06:03:47;33.03;;;21.53;;
6207;SDS011;3137;51.550;7.060;2023-04-15T06:06:14;35.97;;;20.47;;
6207;SDS011;3137;51.550;7.060;2023-04-15T06:08:40;30.20;;;21.53;;
6207;SDS011;3137;51.550;7.060;2023-04-15T06:11:07;32.73;;;21.10;;
6207;SDS011;3137;51.550;7.060;2023-04-15T06:13:33;32.07;;;21.43;;
6207;SDS011;3137;51.550;7.060;2023-04-15T06:16:00;29.93;;;20.00;;
6207;SDS011;3137;51.550;7.060;2023-04-15T06:18:26;31.37;;;21.30;;
6207;SDS011;3137;51.550;7.060;2023-04-15T06:20:52;38.03;;;20.77;;
6207;SDS011;3137;51.550;7.060;2023-04-15T06:23:19;30.23;;;22.23;;
6207;SDS011;3137;51.550;7.060;2023-04-15T06:25:45;34.03;;;21.57;;
6207;SDS011;3137;51.550;7.060;2023-04-15T06:28:12;33.70;;;21.90;;
6207;SDS011;3137;51.550;7.060;2023-04-15T06:30:38;27.23;;;20.13;;
6207;SDS011;3137;51.550;7.060;2023-04-15T06:33:05;30.93;;;20.30;;
6207;SDS011;3137;51.550;7.060;2023-04-15T06:35:32;32.60;;;20.43;;
6207;SDS011;3137;51.550;7.060;2023-04-15T06:37:58;30.93;;;20.80;;
6207;SDS011;3137;51.550;7.060;2023-04-15T06:40:25;32.10;;;20.87;;
6207;SDS011;3137;51.550;7.060;2023-04-15T06:42:51;27.33;;;20.87;;
6207;SDS011;3137;51.550;7.060;2023-04-15T06:45:18;40.57;;;19.87;;
6207;SDS011;3137;51.550;7.060;2023-04-15T06:47:45;27.43;;;20.10;;
6207;SDS011;3137;51.550;7.060;2023-04-15T06:50:11;26.17;;;18.37;;
6207;SDS011;3137;51.550;7.060;2023-04-15T06:52:39;21.47;;;17.80;;
6207;SDS011;3137;51.550;7.060;2023-04-15T06:55:06;23.57;;;17.57;;
6207;SDS011;3137;51.550;7.060;2023-04-15T06:57:33;30.90;;;18.53;;
6207;SDS011;3137;51.550;7.060;2023-04-15T07:00:00;19.37;;;16.90;;
6207;SDS011;3137;51.550;7.060;2023-04-15T07:02:27;21.67;;;15.37;;
6207;SDS011;3137;51.550;7.060;2023-04-15T07:04:53;17.23;;;15.43;;
6207;SDS011;3137;51.550;7.060;2023-04-15T07:07:20;15.87;;;14.37;;
6207;SDS011;3137;51.550;7.060;2023-04-15T07:09:46;17.97;;;15.40;;
6207;SDS011;3137;51.550;7.060;2023-04-15T07:12:13;15.50;;;14.03;;
6207;SDS011;3137;51.550;7.060;2023-04-15T07:14:39;15.73;;;14.33;;
6207;SDS011;3137;51.550;7.060;2023-04-15T07:17:05;15.20;;;13.87;;
6207;SDS011;3137;51.550;7.060;2023-04-15T07:19:32;14.97;;;13.47;;
6207;SDS011;3137;51.550;7.060;2023-04-15T07:21:59;15.47;;;13.77;;
6207;SDS011;3137;51.550;7.060;2023-04-15T07:24:25;15.90;;;14.33;;
6207;SDS011;3137;51.550;7.060;2023-04-15T07:26:55;15.23;;;13.63;;
6207;SDS011;3137;51.550;7.060;2023-04-15T07:29:26;13.73;;;12.63;;
6207;SDS011;3137;51.550;7.060;2023-04-15T07:31:52;14.40;;;12.83;;
6207;SDS011;3137;51.550;7.060;2023-04-15T07:34:18;14.50;;;13.20;;
6207;SDS011;3137;51.550;7.060;2023-04-15T07:36:45;13.27;;;12.27;;
6207;SDS011;3137;51.550;7.060;2023-04-15T07:39:15;13.50;;;12.17;;
6207;SDS011;3137;51.550;7.060;2023-04-15T07:41:41;13.33;;;12.10;;
6207;SDS011;3137;51.550;7.060;2023-04-15T07:44:08;13.97;;;12.50;;
6207;SDS011;3137;51.550;7.060;2023-04-15T07:46:35;13.10;;;11.97;;
6207;SDS011;3137;51.550;7.060;2023-04-15T07:49:02;12.10;;;11.13;;
6207;SDS011;3137;51.550;7.060;2023-04-15T07:51:29;12.63;;;11.73;;
6207;SDS011;3137;51.550;7.060;2023-04-15T07:53:57;10.63;;;9.90;;
6207;SDS011;3137;51.550;7.060;2023-04-15T07:56:23;11.40;;;10.70;;
6207;SDS011;3137;51.550;7.060;2023-04-15T07:58:51;10.80;;;9.87;;
6207;SDS011;3137;51.550;7.060;2023-04-15T08:01:18;15.57;;;9.53;;
6207;SDS011;3137;51.550;7.060;2023-04-15T08:03:44;8.80;;;8.33;;
6207;SDS011;3137;51.550;7.060;2023-04-15T08:06:11;7.20;;;7.10;;
6207;SDS011;3137;51.550;7.060;2023-04-15T08:08:38;7.90;;;7.60;;
6207;SDS011;3137;51.550;7.060;2023-04-15T08:11:04;7.97;;;7.57;;
6207;SDS011;3137;51.550;7.060;2023-04-15T08:13:31;7.90;;;7.60;;
6207;SDS011;3137;51.550;7.060;2023-04-15T08:16:16;8.10;;;7.57;;
6207;SDS011;3137;51.550;7.060;2023-04-15T08:18:46;9.30;;;8.53;;
6207;SDS011;3137;51.550;7.060;2023-04-15T08:21:15;8.00;;;7.77;;
6207;SDS011;3137;51.550;7.060;2023-04-15T08:23:41;8.30;;;7.67;;
6207;SDS011;3137;51.550;7.060;2023-04-15T08:26:08;8.33;;;7.87;;
6207;SDS011;3137;51.550;7.060;2023-04-15T08:28:36;8.63;;;8.23;;
6207;SDS011;3137;51.550;7.060;2023-04-15T08:31:04;9.33;;;8.53;;
6207;SDS011;3137;51.550;7.060;2023-04-15T08:33:31;7.93;;;7.43;;
6207;SDS011;3137;51.550;7.060;2023-04-15T08:35:57;8.53;;;8.13;;
6207;SDS011;3137;51.550;7.060;2023-04-15T08:38:23;8.43;;;8.13;;
6207;SDS011;3137;51.550;7.060;2023-04-15T08:40:50;6.93;;;6.77;;
6207;SDS011;3137;51.550;7.060;2023-04-15T08:43:21;8.50;;;8.23;;
6207;SDS011;3137;51.550;7.060;2023-04-15T08:45:51;7.67;;;7.47;;
6207;SDS011;3137;51.550;7.060;2023-04-15T08:48:17;9.00;;;8.60;;
6207;SDS011;3137;51.550;7.060;2023-04-15T08:50:44;7.77;;;7.53;;
6207;SDS011;3137;51.550;7.060;2023-04-15T08:53:12;7.93;;;7.63;;
6207;SDS011;3137;51.550;7.060;2023-04-15T08:55:42;8.37;;;8.07;;
6207;SDS011;3137;51.550;7.060;2023-04-15T08:58:14;7.53;;;7.33;;
6207;SDS011;3137;51.550;7.060;2023-04-15T09:00:41;8.37;;;8.07;;
6207;SDS011;3137;51.550;7.060;2023-04-15T09:03:08;7.10;;;6.90;;
6207;SDS011;3137;51.550;7.060;2023-04-15T09:05:35;7.50;;;7.10;;
6207;SDS011;3137;51.550;7.060;2023-04-15T09:08:02;6.97;;;6.77;;
6207;SDS011;3137;51.550;7.060;2023-04-15T09:10:29;7.13;;;6.93;;
6207;SDS011;3137;51.550;7.060;2023-04-15T09:12:57;8.10;;;7.60;;
6207;SDS011;3137;51.550;7.060;2023-04-15T09:15:24;7.27;;;7.07;;
6207;SDS011;3137;51.550;7.060;2023-04-15T09:17:52;7.80;;;7.60;;
6207;SDS011;3137;51.550;7.060;2023-04-15T09:20:19;7.90;;;7.63;;
6207;SDS011;3137;51.550;7.060;2023-04-15T09:22:46;7.67;;;7.47;;
6207;SDS011;3137;51.550;7.060;2023-04-15T09:27:49;8.80;;;8.40;;
6207;SDS011;3137;51.550;7.060;2023-04-15T09:30:16;8.73;;;8.33;;
6207;SDS011;3137;51.550;7.060;2023-04-15T09:32:49;8.27;;;7.63;;
6207;SDS011;3137;51.550;7.060;2023-04-15T09:35:17;7.50;;;7.33;;
6207;SDS011;3137;51.550;7.060;2023-04-15T09:37:44;7.70;;;7.47;;
6207;SDS011;3137;51.550;7.060;2023-04-15T09:40:10;6.13;;;6.13;;
6207;SDS011;3137;51.550;7.060;2023-04-15T09:42:59;7.70;;;7.50;;
6207;SDS011;3137;51.550;7.060;2023-04-15T09:45:24;7.50;;;7.33;;
6207;SDS011;3137;51.550;7.060;2023-04-15T09:47:55;7.57;;;7.43;;
6207;SDS011;3137;51.550;7.060;2023-04-15T09:50:27;7.17;;;6.97;;
6207;SDS011;3137;51.550;7.060;2023-04-15T09:52:57;6.90;;;6.80;;
6207;SDS011;3137;51.550;7.060;2023-04-15T09:55:24;10.17;;;9.77;;
6207;SDS011;3137;51.550;7.060;2023-04-15T09:57:51;8.73;;;8.33;;
6207;SDS011;3137;51.550;7.060;2023-04-15T10:00:17;9.20;;;8.70;;
6207;SDS011;3137;51.550;7.060;2023-04-15T10:02:43;9.47;;;9.03;;
6207;SDS011;3137;51.550;7.060;2023-04-15T10:05:13;9.23;;;8.93;;
6207;SDS011;3137;51.550;7.060;2023-04-15T10:07:41;8.67;;;8.27;;
6207;SDS011;3137;51.550;7.060;2023-04-15T10:10:08;10.03;;;9.57;;
6207;SDS011;3137;51.550;7.060;2023-04-15T10:12:36;10.30;;;9.80;;
6207;SDS011;3137;51.550;7.060;2023-04-15T10:15:05;10.90;;;10.33;;
6207;SDS011;3137;51.550;7.060;2023-04-15T10:17:39;10.07;;;9.37;;
6207;SDS011;3137;51.550;7.060;2023-04-15T10:20:09;9.97;;;9.30;;
6207;SDS011;3137;51.550;7.060;2023-04-15T10:22:38;8.67;;;8.37;;
6207;SDS011;3137;51.550;7.060;2023-04-15T10:25:07;9.13;;;8.73;;
6207;SDS011;3137;51.550;7.060;2023-04-15T10:27:34;9.53;;;9.13;;
6207;SDS011;3137;51.550;7.060;2023-04-15T10:30:01;9.77;;;9.17;;
6207;SDS011;3137;51.550;7.060;2023-04-15T10:32:28;9.37;;;8.67;;
6207;SDS011;3137;51.550;7.060;2023-04-15T10:34:55;9.07;;;8.77;;
6207;SDS011;3137;51.550;7.060;2023-04-15T10:37:33;9.90;;;9.50;;
6207;SDS011;3137;51.550;7.060;2023-04-15T10:42:50;9.37;;;8.97;;
6207;SDS011;3137;51.550;7.060;2023-04-15T10:45:17;8.53;;;8.33;;
6207;SDS011;3137;51.550;7.060;2023-04-15T10:47:44;9.53;;;9.03;;
6207;SDS011;3137;51.550;7.060;2023-04-15T10:50:10;9.20;;;8.90;;
6207;SDS011;3137;51.550;7.060;2023-04-15T10:52:40;8.70;;;8.30;;
6207;SDS011;3137;51.550;7.060;2023-04-15T10:55:14;8.20;;;7.80;;
6207;SDS011;3137;51.550;7.060;2023-04-15T10:57:45;7.63;;;7.43;;
6207;SDS011;3137;51.550;7.060;2023-04-15T11:00:15;8.20;;;7.80;;
6207;SDS011;3137;51.550;7.060;2023-04-15T11:02:46;7.73;;;7.43;;
6207;SDS011;3137;51.550;7.060;2023-04-15T11:05:19;9.50;;;9.00;;
6207;SDS011;3137;51.550;7.060;2023-04-15T11:12:43;7.70;;;7.47;;
6207;SDS011;3137;51.550;7.060;2023-04-15T11:15:23;6.87;;;6.77;;
6207;SDS011;3137;51.550;7.060;2023-04-15T11:18:10;6.73;;;6.63;;
6207;SDS011;3137;51.550;7.060;2023-04-15T11:20:38;7.07;;;6.67;;
6207;SDS011;3137;51.550;7.060;2023-04-15T11:23:06;6.70;;;6.57;;
6207;SDS011;3137;51.550;7.060;2023-04-15T11:25:40;6.40;;;6.30;;
6207;SDS011;3137;51.550;7.060;2023-04-15T11:28:08;6.33;;;6.23;;
6207;SDS011;3137;51.550;7.060;2023-04-15T11:30:35;6.57;;;6.37;;
6207;SDS011;3137;51.550;7.060;2023-04-15T11:33:06;6.70;;;6.50;;
6207;SDS011;3137;51.550;7.060;2023-04-15T11:35:34;5.93;;;5.83;;
6207;SDS011;3137;51.550;7.060;2023-04-15T11:38:04;6.70;;;6.53;;
6207;SDS011;3137;51.550;7.060;2023-04-15T11:40:33;6.70;;;6.60;;
6207;SDS011;3137;51.550;7.060;2023-04-15T11:45:30;6.37;;;6.27;;
6207;SDS011;3137;51.550;7.060;2023-04-15T11:48:09;7.00;;;6.80;;
6207;SDS011;3137;51.550;7.060;2023-04-15T11:50:37;7.60;;;7.20;;
6207;SDS011;3137;51.550;7.060;2023-04-15T11:53:07;7.37;;;7.10;;
6207;SDS011;3137;51.550;7.060;2023-04-15T11:55:48;6.60;;;6.30;;
6207;SDS011;3137;51.550;7.060;2023-04-15T11:58:17;7.57;;;7.30;;
6207;SDS011;3137;51.550;7.060;2023-04-15T12:00:49;7.00;;;6.80;;
6207;SDS011;3137;51.550;7.060;2023-04-15T12:03:20;7.30;;;7.00;;
6207;SDS011;3137;51.550;7.060;2023-04-15T12:08:49;6.63;;;6.53;;
6207;SDS011;3137;51.550;7.060;2023-04-15T12:11:32;6.63;;;6.43;;
6207;SDS011;3137;51.550;7.060;2023-04-15T12:16:46;7.10;;;6.27;;
6207;SDS011;3137;51.550;7.060;2023-04-15T12:19:18;6.93;;;6.67;;
6207;SDS011;3137;51.550;7.060;2023-04-15T12:21:58;7.47;;;7.10;;
6207;SDS011;3137;51.550;7.060;2023-04-15T12:24:26;7.33;;;7.13;;
6207;SDS011;3137;51.550;7.060;2023-04-15T12:26:56;6.77;;;6.57;;
6207;SDS011;3137;51.550;7.060;2023-04-15T12:29:27;7.73;;;7.00;;
6207;SDS011;3137;51.550;7.060;2023-04-15T12:31:55;6.33;;;6.23;;
6207;SDS011;3137;51.550;7.060;2023-04-15T12:36:57;7.00;;;6.80;;
6207;SDS011;3137;51.550;7.060;2023-04-15T12:39:25;6.97;;;6.77;;
6207;SDS011;3137;51.550;7.060;2023-04-15T12:41:56;6.57;;;6.37;;
6207;SDS011;3137;51.550;7.060;2023-04-15T12:44:22;5.93;;;5.83;;
6207;SDS011;3137;51.550;7.060;2023-04-15T12:46:50;6.80;;;6.60;;
6207;SDS011;3137;51.550;7.060;2023-04-15T12:49:19;6.73;;;6.53;;
6207;SDS011;3137;51.550;7.060;2023-04-15T12:51:51;5.90;;;5.80;;
6207;SDS011;3137;51.550;7.060;2023-04-15T12:54:18;6.50;;;6.30;;
6207;SDS011;3137;51.550;7.060;2023-04-15T12:56:45;6.93;;;6.73;;
6207;SDS011;3137;51.550;7.060;2023-04-15T12:59:13;6.13;;;5.80;;
6207;SDS011;3137;51.550;7.060;2023-04-15T13:01:41;6.83;;;6.73;;
6207;SDS011;3137;51.550;7.060;2023-04-15T13:04:07;6.00;;;5.80;;
6207;SDS011;3137;51.550;7.060;2023-04-15T13:06:34;6.43;;;6.27;;
6207;SDS011;3137;51.550;7.060;2023-04-15T13:09:02;6.37;;;6.27;;
6207;SDS011;3137;51.550;7.060;2023-04-15T13:11:30;6.73;;;6.53;;
6207;SDS011;3137;51.550;7.060;2023-04-15T13:14:02;6.50;;;6.37;;
6207;SDS011;3137;51.550;7.060;2023-04-15T13:16:31;6.87;;;6.47;;
6207;SDS011;3137;51.550;7.060;2023-04-15T13:18:58;6.33;;;6.13;;
6207;SDS011;3137;51.550;7.060;2023-04-15T13:21:25;7.07;;;6.77;;
6207;SDS011;3137;51.550;7.060;2023-04-15T13:23:52;6.87;;;6.30;;
6207;SDS011;3137;51.550;7.060;2023-04-15T13:26:19;6.23;;;6.07;;
6207;SDS011;3137;51.550;7.060;2023-04-15T13:28:45;5.80;;;5.73;;
6207;SDS011;3137;51.550;7.060;2023-04-15T13:31:12;6.20;;;6.00;;
6207;SDS011;3137;51.550;7.060;2023-04-15T13:33:39;5.70;;;5.70;;
6207;SDS011;3137;51.550;7.060;2023-04-15T13:36:05;6.80;;;6.43;;
6207;SDS011;3137;51.550;7.060;2023-04-15T13:38:32;7.50;;;7.20;;
6207;SDS011;3137;51.550;7.060;2023-04-15T13:40:58;6.83;;;6.43;;
6207;SDS011;3137;51.550;7.060;2023-04-15T13:43:24;6.77;;;6.57;;
6207;SDS011;3137;51.550;7.060;2023-04-15T13:45:51;6.60;;;6.40;;
6207;SDS011;3137;51.550;7.060;2023-04-15T13:48:18;7.00;;;6.83;;
6207;SDS011;3137;51.550;7.060;2023-04-15T13:50:44;6.83;;;6.73;;
6207;SDS011;3137;51.550;7.060;2023-04-15T13:53:11;8.03;;;7.03;;
6207;SDS011;3137;51.550;7.060;2023-04-15T13:55:38;7.23;;;7.03;;
6207;SDS011;3137;51.550;7.060;2023-04-15T13:58:08;8.33;;;8.00;;
6207;SDS011;3137;51.550;7.060;2023-04-15T14:00:34;8.03;;;7.73;;
6207;SDS011;3137;51.550;7.060;2023-04-15T14:03:01;7.00;;;6.87;;
6207;SDS011;3137;51.550;7.060;2023-04-15T14:05:27;7.90;;;7.60;;
6207;SDS011;3137;51.550;7.060;2023-04-15T14:07:54;7.73;;;7.53;;
6207;SDS011;3137;51.550;7.060;2023-04-15T14:10:20;7.53;;;7.00;;
6207;SDS011;3137;51.550;7.060;2023-04-15T14:12:47;7.33;;;7.13;;
6207;SDS011;3137;51.550;7.060;2023-04-15T14:15:13;7.03;;;6.67;;
6207;SDS011;3137;51.550;7.060;2023-04-15T14:17:40;8.70;;;8.33;;
6207;SDS011;3137;51.550;7.060;2023-04-15T14:20:07;8.37;;;7.87;;
6207;SDS011;3137;51.550;7.060;2023-04-15T14:22:34;8.27;;;7.87;;
6207;SDS011;3137;51.550;7.060;2023-04-15T14:25:01;7.00;;;6.60;;
6207;SDS011;3137;51.550;7.060;2023-04-15T14:27:27;8.90;;;7.93;;
6207;SDS011;3137;51.550;7.060;2023-04-15T14:29:54;7.30;;;6.87;;
6207;SDS011;3137;51.550;7.060;2023-04-15T14:32:20;8.93;;;8.43;;
6207;SDS011;3137;51.550;7.060;2023-04-15T14:34:47;8.33;;;7.77;;
6207;SDS011;3137;51.550;7.060;2023-04-15T14:37:13;7.10;;;6.77;;
6207;SDS011;3137;51.550;7.060;2023-04-15T14:39:39;7.43;;;7.20;;
6207;SDS011;3137;51.550;7.060;2023-04-15T14:42:06;7.73;;;7.17;;
6207;SDS011;3137;51.550;7.060;2023-04-15T14:44:32;7.43;;;7.13;;
6207;SDS011;3137;51.550;7.060;2023-04-15T14:46:58;7.53;;;7.23;;
6207;SDS011;3137;51.550;7.060;2023-04-15T14:49:25;6.87;;;6.50;;
6207;SDS011;3137;51.550;7.060;2023-04-15T14:51:52;7.30;;;7.10;;
6207;SDS011;3137;51.550;7.060;2023-04-15T14:54:18;8.07;;;7.73;;
6207;SDS011;3137;51.550;7.060;2023-04-15T14:56:47;7.27;;;6.83;;
6207;SDS011;3137;51.550;7.060;2023-04-15T14:59:13;6.50;;;6.40;;
6207;SDS011;3137;51.550;7.060;2023-04-15T15:01:40;7.47;;;7.37;;
6207;SDS011;3137;51.550;7.060;2023-04-15T15:04:08;7.03;;;6.73;;
6207;SDS011;3137;51.550;7.060;2023-04-15T15:06:35;7.87;;;7.47;;
6207;SDS011;3137;51.550;7.060;2023-04-15T15:09:01;6.53;;;6.33;;
6207;SDS011;3137;51.550;7.060;2023-04-15T15:11:29;6.83;;;6.63;;
6207;SDS011;3137;51.550;7.060;2023-04-15T15:13:55;6.57;;;6.23;;
6207;SDS011;3137;51.550;7.060;2023-04-15T15:16:22;7.37;;;7.13;;
6207;SDS011;3137;51.550;7.060;2023-04-15T15:18:48;7.10;;;6.70;;
6207;SDS011;3137;51.550;7.060;2023-04-15T15:21:16;7.13;;;6.80;;
6207;SDS011;3137;51.550;7.060;2023-04-15T15:23:43;7.60;;;7.03;;